createdAt,value
2024-03-16T00:00:15.787Z,100672.72
2024-03-16T00:01:19.333Z,100661.59
2024-03-16T00:02:22.603Z,100664.16
2024-03-16T00:03:25.374Z,100671.16
2024-03-16T00:04:28.362Z,100624.66
2024-03-16T00:05:31.532Z,100675.84
2024-03-16T00:06:35.038Z,100658.97
2024-03-16T00:07:38.010Z,100673.38
2024-03-16T00:08:40.677Z,100671.66
2024-03-16T00:09:43.711Z,100670.84
2024-03-16T00:10:46.985Z,100671.81
2024-03-16T00:11:50.046Z,100674.37
2024-03-16T00:12:53.008Z,100671.81
2024-03-16T00:13:55.924Z,100670.97
2024-03-16T00:14:58.536Z,100669.06
2024-03-16T00:16:02.089Z,100668.34
2024-03-16T00:17:06.144Z,100674.50
2024-03-16T00:18:09.266Z,100677.75
2024-03-16T00:19:12.323Z,100675.13
2024-03-16T00:20:15.292Z,100670.63
2024-03-16T00:21:18.208Z,100668.94
2024-03-16T00:22:21.463Z,100659.47
2024-03-16T00:23:24.465Z,100662.88
2024-03-16T00:24:27.410Z,100668.16
2024-03-16T00:25:30.123Z,100676.00
2024-03-16T00:26:32.834Z,100663.19
2024-03-16T00:27:36.425Z,100668.50
2024-03-16T00:28:39.023Z,100668.56
2024-03-16T00:29:41.941Z,100622.81
2024-03-16T00:30:44.949Z,100666.94
2024-03-16T00:31:50.227Z,100666.91
2024-03-16T00:32:53.362Z,100666.06
2024-03-16T00:33:56.167Z,100664.84
2024-03-16T00:34:59.099Z,100670.75
2024-03-16T00:36:02.048Z,100672.75
2024-03-16T00:37:05.951Z,100669.28
2024-03-16T00:38:09.280Z,100663.84
2024-03-16T00:39:19.584Z,100665.69
2024-03-16T00:40:22.582Z,100659.41
2024-03-16T00:41:25.361Z,100662.94
2024-03-16T00:42:28.402Z,100662.34
2024-03-16T00:43:31.615Z,100608.06
2024-03-16T00:44:34.346Z,100658.28
2024-03-16T00:45:37.351Z,100650.66
2024-03-16T00:46:40.232Z,100618.53
2024-03-16T00:47:43.005Z,100659.41
2024-03-16T00:48:45.984Z,100645.97
2024-03-16T00:49:49.111Z,100661.53
2024-03-16T00:50:51.739Z,100658.06
2024-03-16T00:51:54.402Z,100654.50
2024-03-16T00:52:57.430Z,100664.09
2024-03-16T00:54:00.605Z,100652.97
2024-03-16T00:55:05.157Z,100656.25
2024-03-16T00:56:11.144Z,100658.03
2024-03-16T00:57:14.189Z,100653.78
2024-03-16T00:58:16.920Z,100655.53
2024-03-16T00:59:20.400Z,100657.28
2024-03-16T01:00:23.578Z,100655.72
2024-03-16T01:01:29.408Z,100660.97
2024-03-16T01:02:32.550Z,100655.88
2024-03-16T01:03:35.624Z,100635.50
2024-03-16T01:04:38.898Z,100657.69
2024-03-16T01:05:41.557Z,100652.41
2024-03-16T01:06:45.303Z,100643.87
2024-03-16T01:07:47.994Z,100649.88
2024-03-16T01:08:50.848Z,100651.72
2024-03-16T01:09:54.096Z,100650.13
2024-03-16T01:10:57.353Z,100605.84
2024-03-16T01:12:00.355Z,100648.31
2024-03-16T01:13:03.140Z,100651.03
2024-03-16T01:14:06.366Z,100651.06
2024-03-16T01:15:10.909Z,100650.97
2024-03-16T01:16:13.994Z,100652.69
2024-03-16T01:17:17.063Z,100647.47
2024-03-16T01:18:19.987Z,100649.03
2024-03-16T01:19:22.777Z,100647.22
2024-03-16T01:20:25.970Z,100649.88
2024-03-16T01:21:28.676Z,100645.62
2024-03-16T01:22:31.623Z,100651.44
2024-03-16T01:23:35.046Z,100646.47
2024-03-16T01:24:37.973Z,100641.28
2024-03-16T01:25:41.355Z,100646.50
2024-03-16T01:26:45.256Z,100646.44
2024-03-16T01:27:48.270Z,100650.75
2024-03-16T01:28:51.061Z,100645.41
2024-03-16T01:29:53.802Z,100647.91
2024-03-16T01:30:57.340Z,100643.75
2024-03-16T01:32:00.692Z,100646.69
2024-03-16T01:33:04.062Z,100645.38
2024-03-16T01:34:07.035Z,100634.69
2024-03-16T01:35:10.775Z,100645.09
2024-03-16T01:36:14.998Z,100648.34
2024-03-16T01:37:18.704Z,100642.38
2024-03-16T01:38:21.817Z,100623.09
2024-03-16T01:39:24.742Z,100640.91
2024-03-16T01:40:27.413Z,100635.41
2024-03-16T01:41:30.598Z,100639.50
2024-03-16T01:42:33.235Z,100636.87
2024-03-16T01:43:36.126Z,100581.53
2024-03-16T01:44:39.083Z,100638.41
2024-03-16T01:45:42.849Z,100644.37
2024-03-16T01:46:46.351Z,100642.59
2024-03-16T01:47:49.257Z,100642.47
2024-03-16T01:48:55.427Z,100644.16
2024-03-16T01:49:58.930Z,100639.81
2024-03-16T01:51:02.562Z,100636.28
2024-03-16T01:52:06.776Z,100643.22
2024-03-16T01:53:12.900Z,100637.28
2024-03-16T01:54:15.822Z,100633.84
2024-03-16T01:55:19.157Z,100639.91
2024-03-16T01:56:22.193Z,100633.09
2024-03-16T01:57:25.582Z,100596.50
2024-03-16T01:58:28.549Z,100645.97
2024-03-16T01:59:31.406Z,100643.41
2024-03-16T02:00:35.751Z,100630.59
2024-03-16T02:01:40.497Z,100645.31
2024-03-16T02:02:43.167Z,100646.03
2024-03-16T02:03:47.851Z,100638.34
2024-03-16T02:04:50.407Z,100637.56
2024-03-16T02:05:53.073Z,100644.56
2024-03-16T02:06:56.396Z,100640.19
2024-03-16T02:08:00.557Z,100641.00
2024-03-16T02:09:04.109Z,100638.41
2024-03-16T02:10:10.488Z,100640.09
2024-03-16T02:11:13.786Z,100646.13
2024-03-16T02:12:16.747Z,100641.00
2024-03-16T02:13:19.685Z,100646.91
2024-03-16T02:14:22.691Z,100643.44
2024-03-16T02:15:25.426Z,100650.41
2024-03-16T02:16:28.023Z,100647.88
2024-03-16T02:17:31.011Z,100651.31
2024-03-16T02:18:33.751Z,100648.84
2024-03-16T02:19:36.542Z,100652.25
2024-03-16T02:20:39.191Z,100650.56
2024-03-16T02:21:42.052Z,100651.63
2024-03-16T02:22:45.852Z,100634.44
2024-03-16T02:23:49.418Z,100635.78
2024-03-16T02:24:52.493Z,100651.56
2024-03-16T02:25:55.463Z,100646.25
2024-03-16T02:26:58.201Z,100642.06
2024-03-16T02:28:01.489Z,100643.72
2024-03-16T02:29:06.147Z,100648.31
2024-03-16T02:30:15.937Z,100642.38
2024-03-16T02:31:19.754Z,100647.69
2024-03-16T02:32:22.497Z,100640.81
2024-03-16T02:33:28.782Z,100648.59
2024-03-16T02:34:32.405Z,100649.31
2024-03-16T02:35:35.420Z,100648.13
2024-03-16T02:36:38.746Z,100649.97
2024-03-16T02:37:41.896Z,100651.63
2024-03-16T02:38:45.044Z,100655.84
2024-03-16T02:39:48.010Z,100655.38
2024-03-16T02:40:50.973Z,100655.34
2024-03-16T02:41:56.853Z,100659.53
2024-03-16T02:42:59.873Z,100657.94
2024-03-16T02:44:03.004Z,100654.81
2024-03-16T02:45:07.144Z,100646.28
2024-03-16T02:46:10.452Z,100660.78
2024-03-16T02:47:13.889Z,100654.72
2024-03-16T02:48:16.600Z,100651.91
2024-03-16T02:49:19.824Z,100650.94
2024-03-16T02:50:22.852Z,100662.31
2024-03-16T02:51:25.800Z,100648.97
2024-03-16T02:52:28.958Z,100654.00
2024-03-16T02:53:31.828Z,100653.69
2024-03-16T02:54:35.007Z,100645.22
2024-03-16T02:55:37.952Z,100657.84
2024-03-16T02:56:40.842Z,100654.41
2024-03-16T02:57:44.244Z,100652.78
2024-03-16T02:58:47.327Z,100652.03
2024-03-16T02:59:50.622Z,100657.03
2024-03-16T03:00:54.135Z,100654.16
2024-03-16T03:01:58.782Z,100661.69
2024-03-16T03:03:01.814Z,100655.75
2024-03-16T03:04:08.588Z,100647.44
2024-03-16T03:05:13.203Z,100658.28
2024-03-16T03:06:16.053Z,100657.97
2024-03-16T03:07:19.237Z,100655.53
2024-03-16T03:08:22.567Z,100646.22
2024-03-16T03:09:25.482Z,100656.69
2024-03-16T03:10:28.408Z,100645.44
2024-03-16T03:11:31.078Z,100665.53
2024-03-16T03:12:34.342Z,100660.34
2024-03-16T03:13:37.512Z,100666.22
2024-03-16T03:14:40.584Z,100669.12
2024-03-16T03:15:44.020Z,100658.72
2024-03-16T03:16:46.891Z,100667.25
2024-03-16T03:17:49.856Z,100668.84
2024-03-16T03:18:52.679Z,100660.06
2024-03-16T03:19:55.683Z,100659.38
2024-03-16T03:20:59.020Z,100665.44
2024-03-16T03:22:02.259Z,100668.94
2024-03-16T03:23:06.830Z,100664.75
2024-03-16T03:24:09.788Z,100672.00
2024-03-16T03:25:12.770Z,100670.16
2024-03-16T03:26:16.071Z,100665.88
2024-03-16T03:27:18.939Z,100660.09
2024-03-16T03:28:21.893Z,100665.53
2024-03-16T03:29:24.731Z,100660.13
2024-03-16T03:30:27.378Z,100671.44
2024-03-16T03:31:30.641Z,100649.63
2024-03-16T03:32:33.820Z,100667.03
2024-03-16T03:33:36.821Z,100660.84
2024-03-16T03:34:39.640Z,100659.28
2024-03-16T03:35:42.512Z,100666.22
2024-03-16T03:36:46.128Z,100667.81
2024-03-16T03:37:49.057Z,100672.22
2024-03-16T03:38:52.004Z,100668.94
2024-03-16T03:39:54.953Z,100669.69
2024-03-16T03:40:58.590Z,100626.87
2024-03-16T03:42:01.625Z,100665.62
2024-03-16T03:43:06.768Z,100669.88
2024-03-16T03:44:37.156Z,100668.28
2024-03-16T03:45:51.301Z,100663.00
2024-03-16T03:46:56.266Z,100669.78
2024-03-16T03:48:04.189Z,100667.94
2024-03-16T03:49:16.073Z,100673.97
2024-03-16T03:50:28.263Z,100656.47
2024-03-16T03:51:31.173Z,100667.84
2024-03-16T03:52:33.779Z,100663.28
2024-03-16T03:53:37.091Z,100649.91
2024-03-16T03:54:40.146Z,100668.75
2024-03-16T03:55:43.753Z,100667.06
2024-03-16T03:56:46.643Z,100672.19
2024-03-16T03:57:50.997Z,100663.47
2024-03-16T03:58:55.766Z,100665.16
2024-03-16T03:59:58.653Z,100667.06
2024-03-16T04:01:01.937Z,100673.25
2024-03-16T04:02:05.220Z,100664.75
2024-03-16T04:03:08.132Z,100666.00
2024-03-16T04:04:11.329Z,100665.03
2024-03-16T04:05:14.254Z,100673.75
2024-03-16T04:06:17.126Z,100675.38
2024-03-16T04:07:20.424Z,100676.00
2024-03-16T04:08:23.163Z,100675.19
2024-03-16T04:09:26.128Z,100679.81
2024-03-16T04:10:29.074Z,100675.16
2024-03-16T04:11:32.007Z,100680.63
2024-03-16T04:12:35.349Z,100682.13
2024-03-16T04:13:38.381Z,100685.66
2024-03-16T04:14:41.367Z,100686.50
2024-03-16T04:15:44.070Z,100681.09
2024-03-16T04:16:48.882Z,100682.88
2024-03-16T04:17:51.913Z,100678.88
2024-03-16T04:18:54.893Z,100650.28
2024-03-16T04:19:57.764Z,100684.94
2024-03-16T04:21:02.467Z,100683.88
2024-03-16T04:22:06.423Z,100690.75
2024-03-16T04:23:10.325Z,100689.84
2024-03-16T04:24:13.048Z,100687.22
2024-03-16T04:25:17.870Z,100688.25
2024-03-16T04:26:20.565Z,100682.41
2024-03-16T04:27:23.498Z,100690.12
2024-03-16T04:28:26.769Z,100688.34
2024-03-16T04:29:29.807Z,100693.06
2024-03-16T04:30:32.548Z,100696.34
2024-03-16T04:31:35.658Z,100692.94
2024-03-16T04:32:39.003Z,100693.97
2024-03-16T04:33:41.925Z,100693.38
2024-03-16T04:34:44.780Z,100696.19
2024-03-16T04:35:47.476Z,100690.91
2024-03-16T04:36:50.515Z,100693.88
2024-03-16T04:37:53.892Z,100699.72
2024-03-16T04:38:57.092Z,100692.75
2024-03-16T04:40:00.058Z,100689.59
2024-03-16T04:41:03.771Z,100690.53
2024-03-16T04:42:06.718Z,100692.59
2024-03-16T04:43:09.781Z,100700.41
2024-03-16T04:44:13.074Z,100696.84
2024-03-16T04:45:15.752Z,100699.44
2024-03-16T04:46:18.579Z,100698.81
2024-03-16T04:47:21.450Z,100699.41
2024-03-16T04:48:24.304Z,100698.75
2024-03-16T04:49:27.482Z,100694.19
2024-03-16T04:50:30.430Z,100702.91
2024-03-16T04:51:34.128Z,100699.38
2024-03-16T04:52:37.132Z,100702.19
2024-03-16T04:53:40.009Z,100702.94
2024-03-16T04:54:42.909Z,100705.63
2024-03-16T04:55:45.616Z,100708.03
2024-03-16T04:56:48.633Z,100713.97
2024-03-16T04:57:51.484Z,100709.72
2024-03-16T04:58:54.154Z,100710.53
2024-03-16T04:59:57.096Z,100698.41
2024-03-16T05:00:59.961Z,100711.31
2024-03-16T05:02:02.737Z,100708.53
2024-03-16T05:03:05.919Z,100711.06
2024-03-16T05:04:11.386Z,100706.69
2024-03-16T05:05:14.371Z,100695.72
2024-03-16T05:06:17.288Z,100698.31
2024-03-16T05:07:22.980Z,100716.00
2024-03-16T05:08:26.359Z,100715.78
2024-03-16T05:09:29.652Z,100713.31
2024-03-16T05:10:33.187Z,100712.81
2024-03-16T05:11:37.450Z,100709.94
2024-03-16T05:12:40.077Z,100709.81
2024-03-16T05:13:43.183Z,100707.25
2024-03-16T05:14:46.046Z,100711.44
2024-03-16T05:15:49.829Z,100709.84
2024-03-16T05:16:52.858Z,100703.81
2024-03-16T05:17:55.707Z,100719.09
2024-03-16T05:18:58.760Z,100714.81
2024-03-16T05:20:01.416Z,100716.56
2024-03-16T05:21:05.886Z,100719.06
2024-03-16T05:22:09.206Z,100710.50
2024-03-16T05:23:12.260Z,100717.12
2024-03-16T05:24:15.234Z,100706.72
2024-03-16T05:25:18.015Z,100714.41
2024-03-16T05:26:21.479Z,100721.31
2024-03-16T05:27:24.202Z,100719.53
2024-03-16T05:28:28.077Z,100716.84
2024-03-16T05:29:31.163Z,100719.44
2024-03-16T05:30:33.888Z,100723.66
2024-03-16T05:31:38.842Z,100723.56
2024-03-16T05:32:42.416Z,100721.03
2024-03-16T05:33:45.499Z,100705.66
2024-03-16T05:34:48.257Z,100728.47
2024-03-16T05:35:50.879Z,100669.50
2024-03-16T05:36:53.963Z,100723.66
2024-03-16T05:37:57.358Z,100720.84
2024-03-16T05:39:01.014Z,100714.75
2024-03-16T05:40:04.555Z,100722.03
2024-03-16T05:41:10.696Z,100721.66
2024-03-16T05:42:14.439Z,100723.88
2024-03-16T05:43:17.438Z,100724.41
2024-03-16T05:44:20.443Z,100723.69
2024-03-16T05:45:23.350Z,100719.88
2024-03-16T05:46:26.300Z,100723.81
2024-03-16T05:47:29.543Z,100729.50
2024-03-16T05:48:32.330Z,100733.56
2024-03-16T05:49:35.369Z,100734.19
2024-03-16T05:50:38.091Z,100735.44
2024-03-16T05:51:40.756Z,100733.81
2024-03-16T05:52:43.682Z,100736.19
2024-03-16T05:53:46.797Z,100739.22
2024-03-16T05:54:49.811Z,100738.16
2024-03-16T05:55:53.017Z,100743.25
2024-03-16T05:56:55.625Z,100731.72
2024-03-16T05:57:58.850Z,100732.66
2024-03-16T05:59:02.075Z,100738.75
2024-03-16T06:00:14.854Z,100744.81
2024-03-16T06:01:18.492Z,100739.19
2024-03-16T06:02:23.428Z,100739.13
2024-03-16T06:03:27.868Z,100736.00
2024-03-16T06:04:30.867Z,100729.34
2024-03-16T06:05:39.822Z,100732.31
2024-03-16T06:06:43.068Z,100732.28
2024-03-16T06:07:45.970Z,100733.28
2024-03-16T06:08:48.873Z,100737.22
2024-03-16T06:09:51.835Z,100732.22
2024-03-16T06:10:54.627Z,100733.03
2024-03-16T06:11:57.927Z,100727.84
2024-03-16T06:13:01.597Z,100738.94
2024-03-16T06:14:05.831Z,100736.38
2024-03-16T06:15:08.917Z,100733.84
2024-03-16T06:16:11.889Z,100737.91
2024-03-16T06:17:15.094Z,100744.56
2024-03-16T06:18:19.811Z,100740.41
2024-03-16T06:19:22.433Z,100744.56
2024-03-16T06:20:25.374Z,100739.03
2024-03-16T06:21:31.263Z,100741.66
2024-03-16T06:22:34.272Z,100728.28
2024-03-16T06:23:36.884Z,100731.19
2024-03-16T06:24:39.823Z,100748.87
2024-03-16T06:25:48.459Z,100746.47
2024-03-16T06:26:55.882Z,100747.69
2024-03-16T06:28:07.715Z,100746.25
2024-03-16T06:29:10.961Z,100752.94
2024-03-16T06:30:17.074Z,100747.75
2024-03-16T06:31:27.139Z,100736.22
2024-03-16T06:32:35.588Z,100736.94
2024-03-16T06:33:46.242Z,100740.25
2024-03-16T06:34:49.832Z,100735.13
2024-03-16T06:35:52.799Z,100727.19
2024-03-16T06:36:55.660Z,100745.72
2024-03-16T06:37:58.586Z,100746.22
2024-03-16T06:39:01.935Z,100741.00
2024-03-16T06:40:05.863Z,100743.44
2024-03-16T06:41:09.095Z,100742.97
2024-03-16T06:42:13.110Z,100741.94
2024-03-16T06:43:16.178Z,100747.12
2024-03-16T06:44:19.984Z,100744.31
2024-03-16T06:45:22.877Z,100747.66
2024-03-16T06:46:25.825Z,100754.75
2024-03-16T06:47:29.005Z,100763.34
2024-03-16T06:48:32.234Z,100753.28
2024-03-16T06:49:35.450Z,100672.84
2024-03-16T06:50:38.916Z,100753.00
2024-03-16T06:51:41.818Z,100756.09
2024-03-16T06:52:44.600Z,100757.56
2024-03-16T06:53:48.813Z,100758.53
2024-03-16T06:54:55.116Z,100755.53
2024-03-16T06:55:57.800Z,100755.50
2024-03-16T06:57:01.348Z,100754.94
2024-03-16T06:58:06.076Z,100753.84
2024-03-16T06:59:08.779Z,100756.09
2024-03-16T07:00:12.709Z,100757.06
2024-03-16T07:01:15.892Z,100760.62
2024-03-16T07:02:19.673Z,100754.16
2024-03-16T07:03:22.437Z,100755.41
2024-03-16T07:04:25.198Z,100766.41
2024-03-16T07:05:28.104Z,100761.97
2024-03-16T07:06:31.186Z,100764.47
2024-03-16T07:07:33.947Z,100763.16
2024-03-16T07:08:39.951Z,100769.06
2024-03-16T07:09:42.949Z,100766.19
2024-03-16T07:10:46.662Z,100771.00
2024-03-16T07:11:49.443Z,100767.12
2024-03-16T07:12:52.199Z,100765.16
2024-03-16T07:13:55.508Z,100769.19
2024-03-16T07:14:58.275Z,100769.03
2024-03-16T07:16:01.376Z,100769.66
2024-03-16T07:17:04.589Z,100773.91
2024-03-16T07:18:08.508Z,100772.41
2024-03-16T07:19:11.410Z,100774.81
2024-03-16T07:20:15.889Z,100769.28
2024-03-16T07:21:20.748Z,100776.25
2024-03-16T07:22:23.694Z,100776.97
2024-03-16T07:23:26.968Z,100730.66
2024-03-16T07:24:30.287Z,100770.03
2024-03-16T07:25:33.024Z,100776.75
2024-03-16T07:26:36.544Z,100768.87
2024-03-16T07:27:39.565Z,100770.16
2024-03-16T07:28:42.611Z,100780.13
2024-03-16T07:29:45.548Z,100775.06
2024-03-16T07:30:48.379Z,100770.56
2024-03-16T07:31:51.412Z,100772.37
2024-03-16T07:32:54.448Z,100771.84
2024-03-16T07:33:59.223Z,100768.53
2024-03-16T07:35:07.811Z,100771.09
2024-03-16T07:36:11.089Z,100769.72
2024-03-16T07:37:16.821Z,100765.31
2024-03-16T07:38:19.640Z,100773.47
2024-03-16T07:39:22.501Z,100775.91
2024-03-16T07:40:25.481Z,100779.19
2024-03-16T07:41:28.104Z,100771.19
2024-03-16T07:42:31.217Z,100771.59
2024-03-16T07:43:34.145Z,100780.50
2024-03-16T07:44:36.991Z,100779.31
2024-03-16T07:45:43.761Z,100778.78
2024-03-16T07:46:48.172Z,100776.88
2024-03-16T07:47:51.442Z,100774.97
2024-03-16T07:48:54.321Z,100775.81
2024-03-16T07:49:57.005Z,100776.03
2024-03-16T07:51:01.021Z,100782.75
2024-03-16T07:52:05.102Z,100780.63
2024-03-16T07:53:08.036Z,100773.94
2024-03-16T07:54:13.678Z,100781.41
2024-03-16T07:55:16.702Z,100767.12
2024-03-16T07:56:19.862Z,100778.66
2024-03-16T07:57:22.697Z,100777.31
2024-03-16T07:58:26.125Z,100772.28
2024-03-16T07:59:29.231Z,100778.66
2024-03-16T08:00:33.107Z,100764.22
2024-03-16T08:01:37.517Z,100778.69
2024-03-16T08:02:40.272Z,100775.13
2024-03-16T08:03:46.008Z,100775.41
2024-03-16T08:04:48.892Z,100775.97
2024-03-16T08:05:51.638Z,100779.50
2024-03-16T08:06:55.396Z,100773.81
2024-03-16T08:07:58.460Z,100776.81
2024-03-16T08:09:01.432Z,100777.13
2024-03-16T08:10:04.688Z,100779.94
2024-03-16T08:11:08.531Z,100740.44
2024-03-16T08:12:11.595Z,100776.66
2024-03-16T08:13:16.090Z,100774.78
2024-03-16T08:14:18.797Z,100783.75
2024-03-16T08:15:22.357Z,100772.37
2024-03-16T08:16:25.436Z,100779.34
2024-03-16T08:17:29.370Z,100771.72
2024-03-16T08:18:32.192Z,100777.00
2024-03-16T08:19:34.928Z,100773.81
2024-03-16T08:20:37.943Z,100778.75
2024-03-16T08:21:40.586Z,100776.50
2024-03-16T08:22:44.499Z,100781.06
2024-03-16T08:23:47.439Z,100781.06
2024-03-16T08:24:50.426Z,100773.25
2024-03-16T08:25:53.553Z,100772.81
2024-03-16T08:26:56.206Z,100777.91
2024-03-16T08:27:59.451Z,100781.91
2024-03-16T08:29:02.185Z,100776.28
2024-03-16T08:30:05.489Z,100776.41
2024-03-16T08:31:09.654Z,100782.00
2024-03-16T08:32:13.794Z,100775.22
2024-03-16T08:33:17.214Z,100779.47
2024-03-16T08:34:20.366Z,100778.00
2024-03-16T08:35:23.085Z,100781.84
2024-03-16T08:36:26.025Z,100785.94
2024-03-16T08:37:29.356Z,100778.00
2024-03-16T08:38:34.182Z,100774.22
2024-03-16T08:39:37.341Z,100777.53
2024-03-16T08:40:40.290Z,100778.28
2024-03-16T08:41:43.192Z,100779.94
2024-03-16T08:42:47.963Z,100775.97
2024-03-16T08:43:50.983Z,100774.50
2024-03-16T08:44:53.827Z,100782.78
2024-03-16T08:45:56.874Z,100730.19
2024-03-16T08:46:59.588Z,100776.78
2024-03-16T08:48:03.219Z,100779.06
2024-03-16T08:49:06.345Z,100781.78
2024-03-16T08:50:10.623Z,100782.94
2024-03-16T08:51:13.804Z,100783.06
2024-03-16T08:52:17.464Z,100780.84
2024-03-16T08:53:21.316Z,100778.16
2024-03-16T08:54:24.464Z,100779.78
2024-03-16T08:55:27.897Z,100781.38
2024-03-16T08:56:32.252Z,100777.59
2024-03-16T08:57:35.404Z,100775.97
2024-03-16T08:58:38.232Z,100769.88
2024-03-16T08:59:41.167Z,100775.97
2024-03-16T09:00:44.127Z,100782.16
2024-03-16T09:01:47.032Z,100774.50
2024-03-16T09:02:51.388Z,100774.91
2024-03-16T09:03:54.376Z,100775.28
2024-03-16T09:04:57.683Z,100772.19
2024-03-16T09:06:02.696Z,100776.50
2024-03-16T09:07:06.659Z,100777.66
2024-03-16T09:08:10.271Z,100769.63
2024-03-16T09:09:13.012Z,100770.56
2024-03-16T09:10:16.644Z,100759.13
2024-03-16T09:11:19.473Z,100772.91
2024-03-16T09:12:22.327Z,100770.50
2024-03-16T09:13:25.525Z,100771.34
2024-03-16T09:14:28.229Z,100767.72
2024-03-16T09:15:31.506Z,100768.56
2024-03-16T09:16:37.281Z,100770.34
2024-03-16T09:17:40.140Z,100738.63
2024-03-16T09:18:42.768Z,100766.06
2024-03-16T09:19:46.402Z,100734.97
2024-03-16T09:20:49.648Z,100771.97
2024-03-16T09:21:52.865Z,100771.75
2024-03-16T09:22:57.381Z,100763.66
2024-03-16T09:24:00.321Z,100777.62
2024-03-16T09:25:07.718Z,100771.25
2024-03-16T09:26:11.034Z,100765.09
2024-03-16T09:27:13.664Z,100771.41
2024-03-16T09:28:16.679Z,100765.34
2024-03-16T09:29:21.016Z,100768.22
2024-03-16T09:30:24.211Z,100776.19
2024-03-16T09:31:27.530Z,100768.75
2024-03-16T09:32:30.493Z,100765.22
2024-03-16T09:33:33.758Z,100767.25
2024-03-16T09:34:36.866Z,100769.78
2024-03-16T09:35:46.419Z,100763.94
2024-03-16T09:36:49.634Z,100768.84
2024-03-16T09:37:52.552Z,100753.09
2024-03-16T09:38:55.440Z,100764.22
2024-03-16T09:39:58.526Z,100764.38
2024-03-16T09:41:01.469Z,100768.34
2024-03-16T09:42:05.723Z,100758.94
